Time;durP1;ratioP1;P1;durP2;ratioP2;P2;SDS_P1;SDS_P2;PMS_P1;PMS_P2;Temp;Humidity;BMP_temperature;BMP_pressure;BME280_temperature;BME280_humidity;BME280_pressure;Samples;Min_cycle;Max_cycle;Signal;HPM_P1;HPM_P2
2021/04/06 00:00:23;;;;;;;27.90;3.60;;;;;;;2.17;100.00;100737.34;5045705;28;20154;-75
2021/04/06 00:02:56;;;;;;;15.98;3.95;;;;;;;2.21;100.00;100736.38;5028551;28;20130;-75
2021/04/06 00:05:22;;;;;;;;;;;;;;;2.17;100.00;100741.78;5050989;28;20029;-75
2021/04/06 00:07:50;;;;;;;15.70;2.97;;;;;;;2.18;100.00;100754.97;5030775;28;20359;-74
2021/04/06 00:10:27;;;;;;;19.65;2.97;;;;;;;2.22;100.00;100751.31;5020355;28;20029;-75
2021/04/06 00:12:55;;;;;;;17.52;3.28;;;;;;;2.20;100.00;100754.94;5050122;28;20094;-75
2021/04/06 00:15:23;;;;;;;10.40;2.10;;;;;;;2.22;100.00;100755.78;5044824;28;20167;-74
2021/04/06 00:17:53;;;;;;;17.30;2.45;;;;;;;2.23;100.00;100745.13;5032725;28;20140;-75
2021/04/06 00:20:19;;;;;;;17.10;2.38;;;;;;;2.24;100.00;100749.50;5039819;28;20029;-74
2021/04/06 00:22:47;;;;;;;23.85;2.95;;;;;;;2.30;100.00;100759.91;5044044;28;20036;-75
2021/04/06 00:25:20;;;;;;;10.55;1.85;;;;;;;2.23;100.00;100768.94;5045555;28;20032;-74
2021/04/06 00:27:47;;;;;;;17.88;2.08;;;;;;;2.27;100.00;100765.31;5025067;28;20025;-75
2021/04/06 00:30:21;;;;;;;23.27;2.72;;;;;;;2.26;100.00;100760.94;5044178;28;20076;-75
2021/04/06 00:32:54;;;;;;;20.75;2.33;;;;;;;2.26;100.00;100763.56;5045229;28;20028;-74
2021/04/06 00:35:27;;;;;;;11.07;2.08;;;;;;;2.32;100.00;100774.00;5029055;28;20442;-75
2021/04/06 00:37:53;;;;;;;16.27;3.08;;;;;;;2.36;100.00;100769.44;5045251;28;20047;-75
2021/04/06 00:40:19;;;;;;;11.13;1.80;;;;;;;2.36;100.00;100775.63;5042197;28;20681;-75
2021/04/06 00:42:45;;;;;;;14.23;2.75;;;;;;;2.31;100.00;100780.19;5043686;28;20510;-75
2021/04/06 00:45:15;;;;;;;16.20;2.60;;;;;;;2.29;100.00;100768.75;5049944;28;20028;-75
2021/04/06 00:47:41;;;;;;;14.93;2.17;;;;;;;2.35;100.00;100762.41;5045419;28;20075;-76
2021/04/06 00:50:09;;;;;;;12.63;1.92;;;;;;;2.26;100.00;100768.00;5044460;28;20044;-75
2021/04/06 00:52:43;;;;;;;18.92;1.70;;;;;;;2.29;100.00;100770.53;5027670;28;20056;-76
2021/04/06 00:55:13;;;;;;;18.08;2.67;;;;;;;2.20;100.00;100763.75;5046237;28;20033;-75
2021/04/06 00:57:42;;;;;;;16.75;2.60;;;;;;;2.24;100.00;100775.13;5042772;28;20040;-75
2021/04/06 01:00:26;;;;;;;23.40;2.25;;;;;;;2.20;100.00;100774.34;5026908;28;20284;-75
2021/04/06 01:03:04;;;;;;;17.13;2.70;;;;;;;2.21;100.00;100776.09;5043688;28;20047;-77
2021/04/06 01:05:32;;;;;;;11.55;1.63;;;;;;;2.25;100.00;100782.16;5043170;28;20036;-78
2021/04/06 01:07:58;;;;;;;13.98;2.08;;;;;;;2.14;100.00;100774.53;5047610;28;20033;-79
2021/04/06 01:10:27;;;;;;;15.82;1.58;;;;;;;2.11;100.00;100777.25;5044971;28;20039;-77
2021/04/06 01:12:56;;;;;;;20.38;3.03;;;;;;;2.19;100.00;100783.19;5027365;28;20025;-78
2021/04/06 01:15:24;;;;;;;16.67;2.35;;;;;;;2.17;100.00;100777.06;5043270;28;20033;-78
2021/04/06 01:17:50;;;;;;;17.60;2.78;;;;;;;2.28;100.00;100777.66;5047134;28;20025;-78
2021/04/06 01:20:18;;;;;;;19.02;2.13;;;;;;;2.27;100.00;100783.00;5045109;28;20033;-78
2021/04/06 01:22:45;;;;;;;21.58;2.63;;;;;;;2.22;100.00;100775.16;5048145;28;20039;-77
2021/04/06 01:25:19;;;;;;;27.13;2.45;;;;;;;2.19;100.00;100772.59;5048088;28;20458;-77
2021/04/06 01:27:45;;;;;;;14.80;2.30;;;;;;;2.21;100.00;100775.22;5040310;28;20028;-78
2021/04/06 01:30:12;;;;;;;15.55;2.08;;;;;;;2.17;100.00;100784.16;5031194;28;20543;-77
2021/04/06 01:32:38;;;;;;;27.65;2.30;;;;;;;2.19;100.00;100783.19;5030187;28;20132;-78
2021/04/06 01:35:08;;;;;;;11.68;2.28;;;;;;;2.17;100.00;100785.00;5047245;28;20132;-78
2021/04/06 01:37:33;;;;;;;22.20;2.50;;;;;;;2.19;100.00;100782.34;5040952;28;20032;-77
2021/04/06 01:40:02;;;;;;;19.08;2.50;;;;;;;2.17;100.00;100787.66;5052355;28;20090;-78
2021/04/06 01:42:31;;;;;;;27.20;3.90;;;;;;;2.21;100.00;100791.97;5046330;28;20033;-77
2021/04/06 01:45:00;;;;;;;25.40;2.28;;;;;;;2.26;100.00;100783.91;5046943;28;20028;-78
2021/04/06 01:47:28;;;;;;;22.48;2.92;;;;;;;2.22;100.00;100788.38;5048929;28;20036;-77
2021/04/06 01:49:56;;;;;;;19.75;3.00;;;;;;;2.17;100.00;100787.66;5049110;28;20037;-78
2021/04/06 01:52:22;;;;;;;12.60;3.38;;;;;;;2.19;100.00;100785.84;5048500;28;20045;-78
2021/04/06 01:54:59;;;;;;;16.90;3.13;;;;;;;2.23;100.00;100803.38;5050676;28;20488;-79
2021/04/06 01:57:36;;;;;;;18.90;2.45;;;;;;;2.20;100.00;100800.84;5046181;28;20044;-79
2021/04/06 02:00:16;;;;;;;15.13;2.88;;;;;;;2.17;100.00;100789.44;5044136;28;20059;-78
2021/04/06 02:02:43;;;;;;;12.73;2.13;;;;;;;2.13;100.00;100795.75;5053839;28;20048;-76
2021/04/06 02:05:11;;;;;;;18.73;1.90;;;;;;;2.14;100.00;100798.34;5046078;28;20494;-77
2021/04/06 02:07:39;;;;;;;19.10;2.17;;;;;;;2.12;100.00;100805.47;5054526;28;20029;-78
2021/04/06 02:10:08;;;;;;;17.73;2.10;;;;;;;2.09;100.00;100802.91;5046716;28;20041;-77
2021/04/06 02:12:44;;;;;;;18.17;1.88;;;;;;;2.02;100.00;100809.28;5051105;28;20114;-77
2021/04/06 02:15:11;;;;;;;14.02;1.98;;;;;;;2.08;100.00;100811.78;5028283;28;20052;-78
2021/04/06 02:17:49;;;;;;;10.32;1.73;;;;;;;2.07;100.00;100815.31;5028026;28;20056;-77
2021/04/06 02:20:26;;;;;;;9.63;2.25;;;;;;;1.99;100.00;100812.88;5045798;28;20036;-78
2021/04/06 02:23:02;;;;;;;16.77;2.25;;;;;;;2.08;100.00;100819.72;5044944;28;20403;-78
2021/04/06 02:25:29;;;;;;;19.23;2.00;;;;;;;2.11;100.00;100816.97;5038548;28;20090;-78
2021/04/06 02:27:55;;;;;;;14.18;2.05;;;;;;;2.08;100.00;100810.91;5052121;28;20036;-77
2021/04/06 02:30:30;;;;;;;18.10;2.28;;;;;;;2.09;100.00;100808.22;5048050;28;20123;-78
2021/04/06 02:33:01;;;;;;;15.45;2.30;;;;;;;2.04;100.00;100794.22;5044906;28;20658;-79
2021/04/06 02:35:27;;;;;;;16.67;2.45;;;;;;;2.04;100.00;100795.09;5050783;28;20065;-77
2021/04/06 02:37:54;;;;;;;20.95;2.25;;;;;;;2.02;100.00;100796.06;5048472;28;20139;-78
2021/04/06 02:40:21;;;;;;;12.43;1.83;;;;;;;1.95;100.00;100791.84;5031319;28;20043;-78
2021/04/06 02:42:48;;;;;;;12.18;2.72;;;;;;;1.95;100.00;100792.72;5046734;28;20041;-77
2021/04/06 02:45:19;;;;;;;27.33;4.57;;;;;;;1.94;100.00;100796.25;5051097;28;20134;-78
2021/04/06 02:47:46;;;;;;;30.00;5.28;;;;;;;1.96;100.00;100796.22;5029088;28;20044;-78
2021/04/06 02:50:15;;;;;;;24.85;3.75;;;;;;;1.99;100.00;100801.41;5054202;28;20024;-77
2021/04/06 02:52:41;;;;;;;19.50;2.67;;;;;;;2.00;100.00;100797.88;5029927;28;20029;-78
2021/04/06 02:55:11;;;;;;;15.20;2.30;;;;;;;2.00;100.00;100787.28;5051057;28;20579;-78
2021/04/06 02:57:45;;;;;;;39.83;8.13;;;;;;;1.94;100.00;100792.75;5046152;28;20047;-76
2021/04/06 03:00:29;;;;;;;80.78;20.70;;;;;;;1.95;100.00;100791.84;5047385;28;20037;-78
2021/04/06 03:02:56;;;;;;;39.47;10.23;;;;;;;1.95;100.00;100784.78;5026449;28;20045;-77
2021/04/06 03:05:29;;;;;;;80.90;25.42;;;;;;;1.83;100.00;100786.88;5037202;28;20075;-77
2021/04/06 03:07:55;;;;;;;105.03;32.58;;;;;;;1.86;100.00;100790.31;5031095;28;20053;-77
2021/04/06 03:10:21;;;;;;;104.13;33.40;;;;;;;1.87;100.00;100776.16;5065410;28;20046;-78
2021/04/06 03:12:50;;;;;;;62.72;19.30;;;;;;;1.91;100.00;100780.47;5050261;28;20033;-77
2021/04/06 03:15:22;;;;;;;81.60;30.65;;;;;;;1.86;100.00;100778.84;5041711;28;20036;-78
2021/04/06 03:17:49;;;;;;;41.60;11.03;;;;;;;1.94;100.00;100784.81;5049959;28;20731;-76
2021/04/06 03:20:21;;;;;;;38.30;9.57;;;;;;;1.88;100.00;100777.03;5029239;28;20696;-77
2021/04/06 03:22:48;;;;;;;42.22;12.25;;;;;;;1.89;100.00;100778.78;5028515;28;20030;-77
2021/04/06 03:25:14;;;;;;;35.17;8.10;;;;;;;1.85;100.00;100777.13;5044388;28;20486;-76
2021/04/06 03:27:48;;;;;;;39.42;8.82;;;;;;;1.92;100.00;100781.31;5045838;28;20036;-78
2021/04/06 03:30:33;;;;;;;26.13;6.80;;;;;;;1.87;100.00;100775.31;5047252;28;20403;-78
2021/04/06 03:33:03;;;;;;;27.92;9.55;;;;;;;1.86;100.00;100784.13;5052192;28;20033;-78
2021/04/06 03:35:30;;;;;;;19.75;3.78;;;;;;;1.91;100.00;100771.69;5032903;28;20128;-76
2021/04/06 03:37:58;;;;;;;28.17;5.05;;;;;;;1.94;100.00;100776.88;5045587;28;20040;-77
2021/04/06 03:40:24;;;;;;;21.58;6.65;;;;;;;1.83;100.00;100768.38;5062942;28;20479;-77
2021/04/06 03:42:50;;;;;;;26.90;6.40;;;;;;;1.83;100.00;100773.66;5047380;28;20045;-78
2021/04/06 03:45:16;;;;;;;23.23;5.97;;;;;;;1.88;100.00;100777.03;5045179;28;20376;-77
2021/04/06 03:47:58;;;;;;;29.48;6.13;;;;;;;1.85;100.00;100777.13;5050477;28;20036;-76
2021/04/06 03:50:41;;;;;;;25.52;6.18;;;;;;;1.72;100.00;100773.09;5043242;28;20488;-79
2021/04/06 03:53:11;;;;;;;20.75;5.20;;;;;;;1.76;100.00;100777.38;5044844;28;20037;-76
2021/04/06 03:55:39;;;;;;;17.42;4.90;;;;;;;1.75;100.00;100770.34;5043514;28;20094;-77
2021/04/06 03:58:08;;;;;;;18.77;4.93;;;;;;;1.79;100.00;100774.66;5047349;28;20028;-78
2021/04/06 04:00:34;;;;;;;18.10;3.97;;;;;;;1.79;100.00;100777.31;5045009;28;20072;-78
2021/04/06 04:03:02;;;;;;;24.30;4.45;;;;;;;1.80;100.00;100768.44;5050919;28;20083;-77
2021/04/06 04:05:28;;;;;;;28.90;4.22;;;;;;;1.76;100.00;100775.59;5040501;28;20105;-77
2021/04/06 04:07:54;;;;;;;24.88;3.90;;;;;;;1.73;100.00;100777.47;5045076;28;20915;-78
2021/04/06 04:10:20;;;;;;;21.75;3.33;;;;;;;1.71;100.00;100779.28;5028742;28;20617;-78
2021/04/06 04:12:45;;;;;;;16.77;3.50;;;;;;;1.65;100.00;100779.44;5056276;28;20029;-77
2021/04/06 04:15:12;;;;;;;22.30;4.47;;;;;;;1.74;100.00;100784.47;5052111;28;20435;-77
2021/04/06 04:17:37;;;;;;;22.52;3.95;;;;;;;1.59;100.00;100773.44;5045297;28;20029;-77
2021/04/06 04:20:10;;;;;;;22.00;3.60;;;;;;;1.69;100.00;100771.38;5027818;28;20037;-78
2021/04/06 04:22:36;;;;;;;22.25;3.72;;;;;;;1.57;100.00;100774.34;5044850;28;20572;-78
2021/04/06 04:25:09;;;;;;;29.10;4.22;;;;;;;1.60;100.00;100775.13;5044425;28;20079;-78
2021/04/06 04:27:35;;;;;;;24.10;3.85;;;;;;;1.59;100.00;100785.78;5030661;28;20122;-78
2021/04/06 04:30:00;;;;;;;23.77;3.40;;;;;;;1.47;100.00;100781.69;5040604;28;20123;-77
2021/04/06 04:32:27;;;;;;;17.42;3.35;;;;;;;1.54;100.00;100785.03;5045014;28;20039;-77
2021/04/06 04:34:53;;;;;;;27.10;3.58;;;;;;;1.57;100.00;100777.88;5033177;28;20036;-76
2021/04/06 04:37:18;;;;;;;24.08;3.45;;;;;;;1.58;100.00;100789.31;5026699;28;20068;-75
2021/04/06 04:39:44;;;;;;;26.00;3.75;;;;;;;1.42;100.00;100786.19;5039429;28;20060;-77
2021/04/06 04:42:10;;;;;;;21.88;5.25;;;;;;;1.54;100.00;100787.69;5046474;28;20032;-77
2021/04/06 04:44:36;;;;;;;21.08;3.80;;;;;;;1.52;100.00;100794.78;5029561;28;20036;-76
2021/04/06 04:47:02;;;;;;;23.50;3.28;;;;;;;1.55;100.00;100794.69;5038688;28;20033;-78
2021/04/06 04:49:27;;;;;;;19.25;3.13;;;;;;;1.58;100.00;100802.56;5042464;28;20032;-78
2021/04/06 04:51:53;;;;;;;22.40;3.10;;;;;;;1.56;100.00;100805.22;5048816;28;20868;-77
2021/04/06 04:54:18;;;;;;;20.80;3.25;;;;;;;1.62;100.00;100802.44;5047023;28;20041;-77
2021/04/06 04:56:44;;;;;;;19.88;2.60;;;;;;;1.54;100.00;100804.41;5053812;28;20120;-78
2021/04/06 04:59:09;;;;;;;20.38;4.32;;;;;;;1.60;100.00;100804.22;5029774;28;20122;-77
2021/04/06 05:01:36;;;;;;;20.77;4.03;;;;;;;1.55;100.00;100798.19;5034343;28;20102;-77
2021/04/06 05:04:02;;;;;;;30.10;4.22;;;;;;;1.52;100.00;100800.94;5031693;28;20040;-78
2021/04/06 05:06:28;;;;;;;24.63;2.63;;;;;;;1.55;100.00;100806.13;5053511;28;20033;-76
2021/04/06 05:08:53;;;;;;;19.08;2.40;;;;;;;1.53;100.00;100805.31;5047403;28;20032;-77
2021/04/06 05:11:19;;;;;;;21.42;2.33;;;;;;;1.57;100.00;100804.31;5049875;28;20487;-76
2021/04/06 05:13:45;;;;;;;25.35;4.25;;;;;;;1.56;100.00;100799.94;5048848;28;20037;-76
2021/04/06 05:16:11;;;;;;;21.88;2.75;;;;;;;1.50;100.00;100797.47;5047174;28;20261;-76
2021/04/06 05:18:36;;;;;;;20.13;2.70;;;;;;;1.50;100.00;100804.53;5048992;28;20044;-78
2021/04/06 05:21:02;;;;;;;28.35;2.97;;;;;;;1.56;100.00;100807.88;5046159;28;20507;-78
2021/04/06 05:23:27;;;;;;;19.05;2.78;;;;;;;1.47;100.00;100817.84;5048353;28;20502;-77
2021/04/06 05:25:54;;;;;;;26.00;2.55;;;;;;;1.49;100.00;100808.94;5047343;28;20036;-76
2021/04/06 05:28:20;;;;;;;26.02;2.60;;;;;;;1.48;100.00;100815.13;5024495;28;20618;-77
2021/04/06 05:30:45;;;;;;;26.35;2.97;;;;;;;1.50;100.00;100808.03;5032709;28;20043;-77
2021/04/06 05:33:10;;;;;;;19.75;2.13;;;;;;;1.58;100.00;100811.34;5047170;28;20037;-77
2021/04/06 05:35:36;;;;;;;22.52;2.58;;;;;;;1.54;100.00;100809.69;5033818;28;20042;-78
2021/04/06 05:38:01;;;;;;;14.57;2.38;;;;;;;1.60;100.00;100811.34;5030825;28;20519;-78
2021/04/06 05:40:27;;;;;;;22.00;2.40;;;;;;;1.60;100.00;100820.09;5047593;28;20082;-78
2021/04/06 05:42:53;;;;;;;14.05;2.28;;;;;;;1.53;100.00;100821.19;5031262;28;20414;-77
2021/04/06 05:45:19;;;;;;;20.30;2.80;;;;;;;1.51;100.00;100815.06;5043726;28;20046;-77
2021/04/06 05:47:50;;;;;;;14.93;2.22;;;;;;;1.54;100.00;100825.56;5048896;28;20064;-77
2021/04/06 05:50:16;;;;;;;8.25;1.98;;;;;;;1.57;100.00;100814.91;5045710;28;20040;-77
2021/04/06 05:52:42;;;;;;;18.77;2.58;;;;;;;1.68;100.00;100824.34;5048722;28;20036;-78
2021/04/06 05:55:08;;;;;;;17.10;1.88;;;;;;;1.71;100.00;100816.34;5048465;28;20482;-77
2021/04/06 05:57:34;;;;;;;12.15;2.38;;;;;;;1.80;100.00;100821.34;5046020;28;20487;-77
2021/04/06 05:59:59;;;;;;;23.92;2.17;;;;;;;1.76;100.00;100825.88;5046938;28;20146;-78
2021/04/06 06:02:25;;;;;;;21.80;2.60;;;;;;;1.85;100.00;100828.25;5030399;28;20025;-78
2021/04/06 06:04:51;;;;;;;20.02;2.47;;;;;;;1.89;100.00;100831.72;5048259;28;20393;-77
2021/04/06 06:07:16;;;;;;;11.60;2.00;;;;;;;1.94;100.00;100833.31;5048918;28;20037;-76
2021/04/06 06:09:43;;;;;;;10.82;2.42;;;;;;;1.97;100.00;100821.78;5045540;28;20028;-76
2021/04/06 06:12:13;;;;;;;16.48;2.95;;;;;;;2.00;100.00;100827.00;5047957;28;20078;-76
2021/04/06 06:14:43;;;;;;;14.68;2.20;;;;;;;1.97;100.00;100835.03;5052824;28;20071;-77
2021/04/06 06:17:12;;;;;;;8.57;1.92;;;;;;;1.97;100.00;100830.59;5028968;28;20086;-77
2021/04/06 06:19:38;;;;;;;14.30;2.40;;;;;;;2.06;100.00;100834.75;5046195;28;20112;-76
2021/04/06 06:22:19;;;;;;;12.80;2.38;;;;;;;2.19;100.00;100838.81;5047668;28;20555;-78
2021/04/06 06:24:48;;;;;;;12.80;2.47;;;;;;;2.22;100.00;100836.06;5044420;28;20081;-76
2021/04/06 06:30:35;;;;;;;9.73;2.05;;;;;;;2.31;100.00;100837.59;5047609;28;20044;-76
2021/04/06 06:33:12;;;;;;;10.43;2.10;;;;;;;2.41;100.00;100842.56;5044036;28;20501;-76
2021/04/06 06:35:39;;;;;;;11.43;2.70;;;;;;;2.58;100.00;100838.59;5052487;28;20033;-77
2021/04/06 06:38:18;;;;;;;13.45;2.53;;;;;;;2.67;100.00;100844.47;5047762;28;20049;-78
2021/04/06 06:40:45;;;;;;;14.10;2.92;;;;;;;2.72;100.00;100836.34;5036891;28;20025;-78
2021/04/06 06:43:19;;;;;;;9.88;2.42;;;;;;;2.63;100.00;100834.00;5029164;28;20107;-77
2021/04/06 06:45:45;;;;;;;18.70;5.72;;;;;;;2.71;100.00;100829.34;5046493;28;20033;-77
2021/04/06 06:48:26;;;;;;;23.52;7.47;;;;;;;2.90;100.00;100827.84;5049766;28;20543;-77
2021/04/06 06:50:52;;;;;;;29.27;3.63;;;;;;;3.01;100.00;100831.06;5051949;28;20033;-78
2021/04/06 06:53:39;;;;;;;18.45;4.72;;;;;;;3.19;97.99;100832.25;5046322;28;20032;-78
2021/04/06 06:56:10;;;;;;;16.35;3.20;;;;;;;3.55;96.07;100832.81;5046342;28;20563;-77
2021/04/06 06:58:44;;;;;;;14.73;2.78;;;;;;;3.77;94.55;100823.19;5046472;28;20483;-78
2021/04/06 07:01:24;;;;;;;9.32;2.63;;;;;;;3.70;93.63;100832.31;5043414;28;20064;-78
2021/04/06 07:04:13;;;;;;;15.07;2.60;;;;;;;4.02;92.62;100842.66;5049848;22;20045;-69
2021/04/06 07:06:43;;;;;;;12.23;1.98;;;;;;;4.60;91.16;100840.53;5032198;28;20029;-70
2021/04/06 07:09:23;;;;;;;11.15;2.55;;;;;;;5.56;87.15;100837.53;5026934;28;20044;-69
2021/04/06 07:12:03;;;;;;;17.20;3.70;;;;;;;5.89;82.16;100845.06;5036921;28;20057;-69
2021/04/06 07:14:31;;;;;;;9.98;1.70;;;;;;;5.35;82.16;100841.09;5006679;28;20037;-69
2021/04/06 07:16:59;;;;;;;13.57;1.98;;;;;;;4.84;84.90;100844.03;5010473;23;20046;-76
2021/04/06 07:19:26;;;;;;;10.40;1.63;;;;;;;4.32;86.94;100840.66;4982399;28;20515;-76
2021/04/06 07:22:03;;;;;;;15.98;1.95;;;;;;;3.93;90.46;100850.09;4972591;28;20452;-76
2021/04/06 07:24:33;;;;;;;9.35;2.42;;;;;;;4.11;91.59;100848.56;4981592;28;20026;-76
2021/04/06 07:27:03;;;;;;;18.30;3.03;;;;;;;4.95;87.43;100855.13;4976948;28;20092;-75
2021/04/06 07:29:29;;;;;;;9.18;2.10;;;;;;;5.19;84.05;100858.59;4981528;28;20812;-75
2021/04/06 07:31:55;;;;;;;10.77;1.80;;;;;;;5.82;82.44;100836.44;4987659;28;20030;-76
2021/04/06 07:34:22;;;;;;;14.73;2.25;;;;;;;6.36;78.51;100845.63;4965959;28;20030;-75
2021/04/06 07:36:48;;;;;;;13.35;2.35;;;;;;;6.77;76.43;100843.75;4990070;28;20040;-76
2021/04/06 07:39:14;;;;;;;12.48;1.80;;;;;;;6.25;77.18;100845.25;4991906;28;20046;-78
2021/04/06 07:41:44;;;;;;;9.07;1.20;;;;;;;5.86;78.45;100839.84;4973218;28;20034;-76
2021/04/06 07:44:11;;;;;;;10.68;1.40;;;;;;;5.88;80.36;100848.66;4972494;28;20030;-76
2021/04/06 07:46:42;;;;;;;10.43;1.48;;;;;;;5.61;80.33;100843.56;4989740;28;20042;-76
2021/04/06 07:49:37;;;;;;;14.07;1.80;;;;;;;5.55;81.58;100838.50;4987834;28;20096;-76
2021/04/06 07:52:16;;;;;;;10.00;1.50;;;;;;;5.10;82.84;100837.69;4978184;28;20512;-75
2021/04/06 07:54:44;;;;;;;9.75;2.33;;;;;;;5.25;82.40;100843.25;4984561;28;20038;-76
2021/04/06 07:57:10;;;;;;;12.18;1.48;;;;;;;5.95;80.42;100842.13;4968024;28;20050;-76
2021/04/06 07:59:35;;;;;;;12.90;1.98;;;;;;;5.50;80.63;100840.44;4984490;28;20038;-76
2021/04/06 08:02:05;;;;;;;10.20;2.10;;;;;;;4.81;83.37;100838.84;4964829;28;20046;-76
2021/04/06 08:04:39;;;;;;;8.07;2.00;;;;;;;5.11;83.12;100848.28;4968665;28;20124;-76
2021/04/06 08:07:23;;;;;;;8.13;1.50;;;;;;;4.97;82.30;100849.75;4985587;28;20052;-75
2021/04/06 08:10:17;;;;;;;8.57;1.42;;;;;;;5.60;79.39;100841.81;4964359;28;20136;-75
2021/04/06 08:12:45;;;;;;;6.22;1.25;;;;;;;6.33;79.58;100849.31;4987864;28;20034;-75
2021/04/06 08:15:20;;;;;;;5.15;1.30;;;;;;;6.44;75.78;100847.03;4990552;28;20038;-75
2021/04/06 08:17:53;;;;;;;10.25;1.55;;;;;;;5.94;76.83;100856.38;4964586;28;20107;-76
2021/04/06 08:20:23;;;;;;;9.45;1.58;;;;;;;5.90;78.05;100847.66;4986686;28;20038;-76
2021/04/06 08:22:51;;;;;;;4.70;1.00;;;;;;;5.75;78.75;100850.06;4977902;28;20088;-76
2021/04/06 08:25:20;;;;;;;7.15;1.30;;;;;;;5.57;78.95;100847.25;4971751;28;20057;-75
2021/04/06 08:27:47;;;;;;;12.15;1.45;;;;;;;5.90;80.09;100844.13;4983432;28;20100;-76
2021/04/06 08:30:16;;;;;;;8.13;2.00;;;;;;;5.59;79.89;100844.53;4989017;28;20501;-76
2021/04/06 08:33:02;;;;;;;7.75;1.02;;;;;;;5.96;80.61;100849.19;4975427;28;20031;-75
2021/04/06 08:35:49;;;;;;;9.15;1.70;;;;;;;6.36;78.18;100864.28;4987402;28;20069;-76
2021/04/06 08:38:24;;;;;;;11.98;1.75;;;;;;;5.99;77.64;100857.03;4971326;28;20038;-75
2021/04/06 08:40:52;;;;;;;4.38;1.30;;;;;;;5.92;77.88;100859.13;4979393;28;20026;-76
2021/04/06 08:43:24;;;;;;;10.18;2.63;;;;;;;5.82;75.80;100854.22;4983121;28;20046;-75
2021/04/06 08:46:16;;;;;;;9.57;1.90;;;;;;;6.02;75.52;100856.94;4992796;28;20022;-75
2021/04/06 08:48:51;;;;;;;5.13;1.20;;;;;;;6.40;73.63;100850.78;4988212;28;20030;-75
2021/04/06 08:51:27;;;;;;;3.92;1.35;;;;;;;6.49;73.82;100861.00;4990370;28;20539;-75
2021/04/06 08:54:04;;;;;;;7.47;2.50;;;;;;;6.58;74.80;100859.75;4995365;28;20618;-76
2021/04/06 08:56:34;;;;;;;9.25;1.90;;;;;;;6.95;73.48;100861.56;4984067;28;20042;-76
2021/04/06 08:59:32;;;;;;;6.55;1.30;;;;;;;6.86;72.91;100857.50;4979628;28;20511;-77
2021/04/06 09:02:10;;;;;;;4.60;1.25;;;;;;;7.03;70.11;100851.41;4975706;28;20069;-75
2021/04/06 09:04:37;;;;;;;7.45;1.50;;;;;;;6.92;70.61;100851.03;4982611;28;20032;-76
2021/04/06 09:07:25;;;;;;;6.80;1.33;;;;;;;6.64;70.96;100843.47;4992076;28;20097;-77
2021/04/06 09:10:03;;;;;;;8.73;1.80;;;;;;;6.63;72.89;100843.53;4965488;28;20030;-76
2021/04/06 09:12:30;;;;;;;3.90;1.40;;;;;;;6.28;73.27;100835.34;4985279;28;20049;-76
2021/04/06 09:14:56;;;;;;;5.93;1.75;;;;;;;6.16;74.15;100840.34;4989853;28;20129;-76
2021/04/06 09:17:26;;;;;;;10.95;1.88;;;;;;;6.06;75.07;100840.72;4973174;28;20121;-76
2021/04/06 09:19:52;;;;;;;7.28;2.10;;;;;;;6.23;74.28;100833.81;4992205;28;20045;-76
2021/04/06 09:22:18;;;;;;;11.43;1.65;;;;;;;6.34;75.32;100834.19;4980082;28;20100;-77
2021/04/06 09:24:44;;;;;;;10.85;1.88;;;;;;;6.18;76.17;100833.13;4990418;28;20416;-76
2021/04/06 09:27:11;;;;;;;11.90;2.22;;;;;;;6.12;75.63;100839.59;4974246;28;20047;-75
2021/04/06 09:29:39;;;;;;;7.13;1.80;;;;;;;5.91;73.91;100830.75;4991536;28;20544;-76
2021/04/06 09:32:14;;;;;;;12.00;1.88;;;;;;;5.81;77.12;100823.19;4974034;28;20045;-76
2021/04/06 09:34:48;;;;;;;10.40;1.88;;;;;;;5.91;75.25;100819.22;4987649;28;20044;-75
2021/04/06 09:37:16;;;;;;;8.43;1.48;;;;;;;5.97;76.25;100818.97;4980240;28;20038;-76
2021/04/06 09:39:48;;;;;;;5.72;2.20;;;;;;;6.58;73.93;100824.19;4996711;28;20104;-75
2021/04/06 09:42:14;;;;;;;5.10;1.60;;;;;;;6.84;74.69;100810.53;4988673;28;20034;-75
2021/04/06 09:44:42;;;;;;;5.55;1.50;;;;;;;7.38;71.26;100808.78;4973234;28;20034;-75
2021/04/06 09:47:19;;;;;;;6.85;1.25;;;;;;;7.32;71.87;100809.94;4984261;28;20034;-76
2021/04/06 09:49:53;;;;;;;4.25;1.30;;;;;;;6.80;73.85;100801.78;4990401;28;20109;-76
2021/04/06 09:52:23;;;;;;;10.15;2.22;;;;;;;6.71;75.02;100806.69;4974589;28;20097;-75
2021/04/06 09:54:53;;;;;;;3.08;0.93;;;;;;;7.37;77.16;100807.91;4985944;28;20038;-76
2021/04/06 09:57:22;;;;;;;8.27;1.50;;;;;;;7.77;74.66;100811.25;4990807;28;20069;-76
2021/04/06 09:59:53;;;;;;;6.18;1.33;;;;;;;8.13;72.79;100810.19;4990249;28;20045;-75
2021/04/06 10:02:22;;;;;;;2.97;0.80;;;;;;;8.29;70.92;100817.38;4991286;28;20060;-76
2021/04/06 10:04:50;;;;;;;9.05;1.38;;;;;;;8.12;68.94;100808.47;4986546;28;20026;-76
2021/04/06 10:07:19;;;;;;;4.40;1.00;;;;;;;7.53;71.22;100808.03;4982398;28;20074;-76
2021/04/06 10:09:54;;;;;;;6.40;1.10;;;;;;;7.40;70.05;100806.91;4986884;28;20034;-75
2021/04/06 10:12:21;;;;;;;5.57;1.15;;;;;;;7.24;70.42;100812.97;4988410;28;20101;-76
2021/04/06 10:14:48;;;;;;;6.88;1.55;;;;;;;7.05;69.57;100805.94;4972593;28;20105;-75
2021/04/06 10:17:34;;;;;;;4.70;1.00;;;;;;;7.15;68.15;100797.44;4985053;28;20030;-75
2021/04/06 10:20:08;;;;;;;7.28;1.27;;;;;;;7.16;68.44;100792.97;4988621;28;20037;-76
2021/04/06 10:22:53;;;;;;;6.47;1.45;;;;;;;7.47;67.94;100778.94;4989315;28;20034;-76
2021/04/06 10:25:24;;;;;;;7.93;1.40;;;;;;;7.31;67.63;100771.69;4973457;28;20030;-76
2021/04/06 10:27:55;;;;;;;9.98;1.20;;;;;;;6.99;67.21;100775.06;4996460;28;20030;-77
2021/04/06 10:30:40;;;;;;;8.38;1.30;;;;;;;7.11;67.42;100763.81;4983915;28;20109;-75
2021/04/06 10:33:09;;;;;;;13.27;2.05;;;;;;;6.67;68.71;100767.75;4996471;28;20038;-75
2021/04/06 10:35:41;;;;;;;4.05;1.35;;;;;;;6.50;70.20;100774.75;4983408;28;20664;-76
2021/04/06 10:38:19;;;;;;;3.33;0.80;;;;;;;6.49;71.73;100778.34;4990920;28;20515;-74
2021/04/06 10:40:45;;;;;;;7.30;1.00;;;;;;;5.90;76.10;100780.22;4963475;28;20401;-77
2021/04/06 10:43:19;;;;;;;4.40;1.20;;;;;;;5.81;78.38;100780.56;4970263;28;20492;-75
2021/04/06 10:45:51;;;;;;;3.45;1.48;;;;;;;5.80;80.02;100770.88;4981585;28;20403;-76
2021/04/06 10:48:20;;;;;;;5.93;1.38;;;;;;;5.92;81.04;100773.88;4967423;28;20053;-76
2021/04/06 10:50:57;;;;;;;9.65;1.85;;;;;;;5.86;80.60;100763.47;4969142;28;20038;-76
2021/04/06 10:53:24;;;;;;;10.75;1.33;;;;;;;6.15;81.36;100758.66;4986078;28;20038;-75
2021/04/06 10:55:53;;;;;;;4.63;1.17;;;;;;;6.28;79.37;100767.81;4982151;28;20034;-77
2021/04/06 10:58:24;;;;;;;6.38;1.02;;;;;;;6.31;76.07;100768.53;4991906;28;20087;-75
2021/04/06 11:01:06;;;;;;;6.25;1.05;;;;;;;6.30;74.18;100774.81;4971053;28;20069;-75
2021/04/06 11:03:49;;;;;;;6.10;1.00;;;;;;;6.02;71.41;100774.34;4987745;28;20066;-75
2021/04/06 11:06:15;;;;;;;7.55;1.00;;;;;;;5.42;72.42;100789.34;4988573;28;20042;-75
2021/04/06 11:08:44;;;;;;;2.80;0.70;;;;;;;5.04;79.43;100796.25;4968597;28;20034;-77
2021/04/06 11:11:18;;;;;;;5.25;0.88;;;;;;;4.84;83.26;100794.38;4968360;28;20089;-76
2021/04/06 11:13:44;;;;;;;1.08;0.40;;;;;;;4.44;87.96;100786.22;4985676;28;20134;-75
2021/04/06 11:16:10;;;;;;;3.10;0.35;;;;;;;4.25;91.32;100771.91;4967280;28;20424;-75
2021/04/06 11:18:36;;;;;;;1.05;0.63;;;;;;;4.00;93.57;100759.53;4984760;28;20034;-75
2021/04/06 11:21:03;;;;;;;1.10;0.50;;;;;;;4.02;94.29;100770.94;4969749;28;20065;-75
2021/04/06 11:23:28;;;;;;;3.22;0.70;;;;;;;3.97;94.97;100764.06;4986377;28;20038;-76
2021/04/06 11:25:54;;;;;;;3.78;0.60;;;;;;;3.92;94.57;100764.25;4974956;28;20436;-75
2021/04/06 11:28:19;;;;;;;1.65;0.57;;;;;;;4.03;94.02;100770.03;4975522;28;20126;-75
2021/04/06 11:30:45;;;;;;;1.52;0.60;;;;;;;4.07;93.63;100766.31;4992400;28;20034;-76
2021/04/06 11:33:10;;;;;;;1.63;0.55;;;;;;;4.14;95.45;100771.41;4973647;28;20205;-76
2021/04/06 11:35:36;;;;;;;1.67;0.60;;;;;;;4.27;96.16;100751.44;4988532;28;20073;-75
2021/04/06 11:38:01;;;;;;;5.30;0.73;;;;;;;4.41;98.09;100754.44;4989287;28;20524;-75